Evening Mist — WBA7462 — position and weather

sailwx.info

Track history (hours):
 
Tides and Currents Weather Stations Pressure Air Temp Water Temp Dewpoint Dewpoint Depression Visibility Wind Speed Wind Dir Waves Ship Positions

Evening Mist

Owner: TUG EVENING MIST CORP, MELVILLE, NY. More information available from US FCC via Universal Licensing System and Coast Guard Vessel Documentation Center.

Last reported at 2018-Jan-24 09:00 UTC. Time now 2018-Jan-24 09:25 UTC.
Position N 40°39' W 074°05'.

Length 35 m; draft 5 m.

Type: Tow > 200 m length. MMSI: 367008230.

Date/timePositionNaut miles runAvg speedWind from/ knotsBaromVisibWave heightAir tempDewpointWater temp
2018-Jan-24 09:00N 40°39' W 074°05'2 3.2
2018-Jan-24 08:30N 40°39' W 074°03'0 0.1
2018-Jan-24 08:00N 40°39' W 074°02'0 0.0
2018-Jan-24 07:30N 40°39' W 074°02'0 0.0
2018-Jan-24 07:00N 40°39' W 074°02'0 0.0
2018-Jan-24 06:30N 40°39' W 074°02'0 0.0
2018-Jan-24 06:00N 40°39' W 074°02'0 0.0
2018-Jan-24 05:30N 40°39' W 074°02'0 0.0
2018-Jan-24 05:00N 40°39' W 074°02'0 0.0
2018-Jan-24 04:30N 40°39' W 074°02'0 0.0
2018-Jan-24 04:00N 40°39' W 074°02'0 0.0
2018-Jan-24 03:30N 40°39' W 074°02'0 0.0
2018-Jan-24 03:00N 40°39' W 074°02'0 0.0
2018-Jan-24 02:30N 40°39' W 074°02'0 0.0
2018-Jan-24 02:00N 40°39' W 074°02'0 0.0
2018-Jan-24 01:30N 40°39' W 074°03'0 0.0
2018-Jan-24 01:00N 40°39' W 074°02'0 0.0
2018-Jan-24 00:30N 40°39' W 074°03'0 0.1
2018-Jan-24 00:00N 40°39' W 074°03'0 0.0
2018-Jan-23 23:30N 40°39' W 074°03'0 0.0
2018-Jan-23 23:00N 40°39' W 074°03'0 0.0
2018-Jan-23 22:30N 40°39' W 074°03'0 0.1
2018-Jan-23 22:00N 40°39' W 074°03'0 0.2
2018-Jan-23 21:30N 40°39' W 074°03'0 0.1
2018-Jan-23 21:00N 40°39' W 074°03'0 0.0
2018-Jan-23 20:30N 40°39' W 074°03'0 0.2
2018-Jan-23 20:00N 40°39' W 074°03'0 0.1
2018-Jan-23 19:30N 40°39' W 074°03'0 0.0
2018-Jan-23 19:00N 40°39' W 074°03'0 0.0
2018-Jan-23 18:30N 40°39' W 074°03'0 0.0
2018-Jan-23 18:00N 40°39' W 074°03'0 0.0
2018-Jan-23 17:30N 40°39' W 074°03'0 0.0
2018-Jan-23 17:00N 40°39' W 074°03'0 0.0
2018-Jan-23 16:30N 40°39' W 074°03'0 0.0
2018-Jan-23 16:00N 40°39' W 074°03'0 0.0
2018-Jan-23 15:30N 40°39' W 074°03'0 0.0
2018-Jan-23 15:00N 40°39' W 074°03'0 0.0
2018-Jan-23 14:30N 40°39' W 074°03'0 0.0
2018-Jan-23 14:00N 40°39' W 074°03'0 0.1
2018-Jan-23 13:30N 40°39' W 074°03'1 2.4
2018-Jan-23 12:59N 40°39' W 074°04'2 4.9
2018-Jan-23 12:30N 40°38' W 074°07'0 0.0
2018-Jan-23 11:59N 40°38' W 074°07'0 0.0
2018-Jan-23 11:30N 40°39' W 074°07'0 0.0
2018-Jan-23 11:00N 40°38' W 074°07'0 0.0
2018-Jan-23 10:30N 40°38' W 074°07'1 1.3
2018-Jan-23 10:00N 40°39' W 074°07'0 0.1
2018-Jan-23 09:30N 40°39' W 074°07'1 1.1
2018-Jan-23 09:00N 40°38' W 074°07'0 0.0
2018-Jan-23 08:30N 40°39' W 074°07'0 0.0
2018-Jan-23 08:00N 40°39' W 074°07'0 0.0
2018-Jan-23 07:30N 40°39' W 074°07'0 0.0
2018-Jan-23 07:00N 40°39' W 074°07'0 0.0
2018-Jan-23 06:30N 40°39' W 074°07'0 0.0
2018-Jan-23 06:00N 40°38' W 074°07'0 0.0
2018-Jan-23 05:19N 40°39' W 074°07'0 0.0
2018-Jan-23 05:00N 40°39' W 074°07'0 0.0
2018-Jan-23 04:29N 40°39' W 074°07'0 0.0
2018-Jan-23 03:59N 40°38' W 074°07'0 0.0
2018-Jan-23 03:28N 40°39' W 074°07'0 0.0
2018-Jan-23 02:56N 40°39' W 074°07'1 2.9
2018-Jan-23 02:30N 40°39' W 074°09'3 6.7
2018-Jan-23 02:00N 40°36' W 074°12'0 0.0
2018-Jan-23 01:30N 40°36' W 074°12'0 0.6
2018-Jan-23 01:00N 40°37' W 074°12'1 1.9
2018-Jan-23 00:30N 40°38' W 074°12'0 0.3
2018-Jan-23 00:00N 40°38' W 074°12'4 7.5
2018-Jan-22 23:28N 40°39' W 074°07'0 0.9
2018-Jan-22 23:00N 40°39' W 074°07'0 0.1
2018-Jan-22 22:30N 40°39' W 074°07'0 0.3
2018-Jan-22 22:00N 40°39' W 074°07'1 1.0
2018-Jan-22 21:28N 40°38' W 074°07'0 0.0
2018-Jan-22 21:00N 40°38' W 074°07'0 0.0
2018-Jan-22 20:27N 40°38' W 074°07'0 0.0
2018-Jan-22 19:52N 40°38' W 074°07'2 5.8
2018-Jan-22 19:30N 40°39' W 074°10'3 5.5
2018-Jan-22 18:56N 40°36' W 074°12'0 0.0
2018-Jan-22 18:29N 40°36' W 074°12'0 0.0
2018-Jan-22 18:00N 40°36' W 074°12'0 0.9
2018-Jan-22 17:30N 40°36' W 074°12'1 1.0
2018-Jan-22 16:59N 40°36' W 074°12'1 1.1
2018-Jan-22 15:56N 40°35' W 074°13'1 1.4
2018-Jan-22 15:27N 40°36' W 074°12'0 0.0
2018-Jan-22 14:56N 40°36' W 074°12'1 2.2
2018-Jan-22 14:30N 40°37' W 074°12'3 6.4
2018-Jan-22 14:00N 40°39' W 074°09'5 9.7
2018-Jan-22 13:30N 40°39' W 074°03'0 0.1
2018-Jan-22 13:00N 40°39' W 074°03'0 0.0
2018-Jan-22 12:30N 40°39' W 074°03'1 2.5
2018-Jan-22 12:00N 40°40' W 074°02'2 3.6
2018-Jan-22 11:30N 40°41' W 074°00'2 4.6
2018-Jan-22 11:00N 40°40' W 074°02'1 1.5
2018-Jan-22 10:30N 40°39' W 074°03'2 4.3
2018-Jan-22 10:00N 40°39' W 074°05'0 0.1
2018-Jan-22 09:30N 40°39' W 074°05'1 1.9
2018-Jan-22 09:00N 40°39' W 074°07'0 0.1
2018-Jan-22 08:30N 40°39' W 074°07'0 0.0
2018-Jan-22 08:00N 40°39' W 074°07'0 0.0
2018-Jan-22 07:30N 40°39' W 074°07'0 0.0
2018-Jan-22 07:00N 40°39' W 074°07'0 0.0
2018-Jan-22 06:30N 40°39' W 074°07'0 0.0
2018-Jan-22 06:00N 40°39' W 074°07'0 0.0
2018-Jan-22 05:29N 40°39' W 074°07'0 0.5
2018-Jan-22 05:00N 40°39' W 074°07'4 8.2
2018-Jan-22 04:30N 40°37' W 074°12'4 6.4
2018-Jan-22 03:53N 40°34' W 074°13'1 2.4
2018-Jan-22 03:30N 40°33' W 074°14'0 0.1
2018-Jan-22 03:00N 40°33' W 074°14'3 5.1
2018-Jan-22 02:22N 40°36' W 074°12'3 6.7
2018-Jan-22 01:59N 40°39' W 074°11'3 6.4
2018-Jan-22 01:28N 40°39' W 074°07'0 0.0
2018-Jan-22 01:00N 40°39' W 074°07'0 0.0
2018-Jan-22 00:30N 40°39' W 074°07'0 0.0
2018-Jan-22 00:00N 40°39' W 074°07'0 0.0
2018-Jan-21 23:30N 40°39' W 074°07'0 0.0
2018-Jan-21 23:00N 40°39' W 074°07'0 0.0
2018-Jan-21 22:30N 40°39' W 074°07'0 0.0
2018-Jan-21 22:00N 40°39' W 074°07'0 0.0
2018-Jan-21 21:30N 40°39' W 074°07'0 0.0
2018-Jan-21 20:59N 40°39' W 074°07'0 0.0
2018-Jan-21 20:30N 40°39' W 074°07'0 0.0
2018-Jan-21 19:59N 40°39' W 074°07'0 0.0
2018-Jan-21 19:30N 40°39' W 074°07'0 0.0
2018-Jan-21 18:59N 40°39' W 074°07'0 0.0
2018-Jan-21 18:30N 40°39' W 074°07'0 0.4
2018-Jan-21 18:00N 40°39' W 074°07'0 0.7
2018-Jan-21 17:30N 40°39' W 074°07'0 0.2
2018-Jan-21 17:00N 40°39' W 074°07'0 0.0
2018-Jan-21 16:30N 40°39' W 074°07'0 0.0
2018-Jan-21 16:00N 40°39' W 074°07'1 2.0
2018-Jan-21 15:30N 40°39' W 074°05'0 0.0
2018-Jan-21 15:00N 40°39' W 074°05'1 1.9
2018-Jan-21 14:30N 40°39' W 074°04'1 3.0
2018-Jan-21 14:00N 40°40' W 074°02'0 0.1
2018-Jan-21 13:30N 40°40' W 074°02'0 0.2
2018-Jan-21 13:00N 40°40' W 074°02'0 0.1
2018-Jan-21 12:29N 40°40' W 074°02'0 0.0
2018-Jan-21 12:00N 40°40' W 074°02'0 0.0
2018-Jan-21 11:30N 40°40' W 074°02'0 0.0
2018-Jan-21 10:59N 40°40' W 074°02'0 0.0
2018-Jan-21 10:30N 40°40' W 074°02'0 0.1
2018-Jan-21 10:00N 40°40' W 074°02'1 2.3
2018-Jan-21 09:30N 40°39' W 074°04'3 5.2
2018-Jan-21 09:00N 40°39' W 074°07'0 0.0
2018-Jan-21 08:29N 40°39' W 074°07'0 0.0
2018-Jan-21 08:00N 40°39' W 074°07'0 0.7
2018-Jan-21 07:30N 40°39' W 074°07'0 0.0
2018-Jan-21 07:00N 40°39' W 074°07'0 0.0
2018-Jan-21 06:30N 40°39' W 074°07'0 0.0
2018-Jan-21 06:00N 40°39' W 074°07'0 0.0
2018-Jan-21 05:30N 40°39' W 074°07'0 0.0
2018-Jan-21 05:00N 40°39' W 074°07'0 0.0
2018-Jan-21 04:30N 40°39' W 074°07'2 3.9
2018-Jan-21 04:00N 40°39' W 074°10'4 7.4
2018-Jan-21 03:29N 40°36' W 074°12'0 0.5
2018-Jan-21 03:00N 40°36' W 074°12'0 0.0
2018-Jan-21 02:28N 40°36' W 074°12'0 0.0
2018-Jan-21 02:00N 40°36' W 074°12'0 0.0
2018-Jan-21 01:30N 40°36' W 074°12'0 0.0
2018-Jan-21 00:58N 40°36' W 074°12'2 4.0
2018-Jan-21 00:30N 40°38' W 074°12'0 0.1
2018-Jan-21 00:00N 40°38' W 074°12'0 0.2
2018-Jan-20 23:30N 40°38' W 074°12'0 0.4
2018-Jan-20 23:00N 40°38' W 074°12'0 0.0
2018-Jan-20 22:25N 40°38' W 074°12'0 0.5
2018-Jan-20 22:00N 40°38' W 074°12'4 8.1
2018-Jan-20 21:28N 40°39' W 074°06'1 1.2
2018-Jan-20 21:00N 40°39' W 074°07'0 0.0
2018-Jan-20 20:28N 40°39' W 074°07'0 0.0
2018-Jan-20 19:58N 40°39' W 074°07'0 0.0
2018-Jan-20 19:30N 40°39' W 074°07'0 0.0
2018-Jan-20 19:00N 40°39' W 074°07'0 0.2
2018-Jan-20 18:30N 40°39' W 074°07'0 0.2
2018-Jan-20 17:59N 40°39' W 074°07'0 0.0
2018-Jan-20 17:29N 40°39' W 074°07'0 0.0
2018-Jan-20 17:00N 40°39' W 074°07'0 0.0
2018-Jan-20 16:29N 40°39' W 074°07'0 0.0
2018-Jan-20 16:00N 40°39' W 074°07'0 0.7
2018-Jan-20 15:30N 40°39' W 074°07'0 0.0
2018-Jan-20 15:00N 40°39' W 074°07'0 0.0
2018-Jan-20 14:30N 40°39' W 074°07'1 1.9
2018-Jan-20 14:00N 40°39' W 074°06'3 5.5
2018-Jan-20 13:30N 40°40' W 074°02'0 0.1
2018-Jan-20 13:00N 40°40' W 074°02'0 0.0
2018-Jan-20 12:30N 40°40' W 074°02'0 0.0
2018-Jan-20 12:00N 40°40' W 074°02'0 0.1
2018-Jan-20 11:30N 40°40' W 074°02'0 0.1
2018-Jan-20 11:00N 40°40' W 074°02'0 0.0
2018-Jan-20 10:30N 40°40' W 074°02'0 0.0
2018-Jan-20 10:00N 40°40' W 074°02'0 0.0
2018-Jan-20 09:30N 40°40' W 074°02'0 0.0
2018-Jan-20 09:00N 40°40' W 074°02'0 0.0
2018-Jan-20 08:30N 40°40' W 074°02'0 0.0
2018-Jan-20 08:00N 40°40' W 074°02'0 0.0
2018-Jan-20 07:30N 40°40' W 074°02'0 0.0
2018-Jan-20 07:00N 40°40' W 074°02'0 0.0
2018-Jan-20 06:30N 40°40' W 074°02'0 0.2
2018-Jan-20 06:00N 40°40' W 074°02'0 0.1
2018-Jan-20 05:30N 40°40' W 074°02'0 0.0
2018-Jan-20 05:00N 40°40' W 074°02'0 0.0
2018-Jan-20 04:30N 40°40' W 074°02'0 0.0
2018-Jan-20 04:00N 40°40' W 074°02'0 0.0
2018-Jan-20 03:30N 40°40' W 074°02'0 0.0
2018-Jan-20 03:00N 40°40' W 074°02'0 0.0
2018-Jan-20 02:30N 40°40' W 074°02'0 0.0
2018-Jan-20 02:00N 40°40' W 074°02'0 0.0
2018-Jan-20 01:30N 40°40' W 074°02'0 0.0
2018-Jan-20 01:00N 40°40' W 074°02'0 0.0
2018-Jan-20 00:30N 40°40' W 074°02'0 0.1
2018-Jan-20 00:00N 40°40' W 074°02'0 0.2
2018-Jan-19 23:30N 40°40' W 074°02'0 0.1
2018-Jan-19 23:00N 40°40' W 074°02'0 0.0
2018-Jan-19 22:30N 40°40' W 074°02'0 0.0
2018-Jan-19 22:00N 40°40' W 074°02'0 0.0
2018-Jan-19 21:30N 40°40' W 074°02'0 0.0
2018-Jan-19 21:00N 40°40' W 074°02'0 0.0
2018-Jan-19 20:30N 40°40' W 074°02'0 0.0
2018-Jan-19 20:00N 40°40' W 074°02'0 0.0
2018-Jan-19 19:30N 40°40' W 074°02'0 0.0
2018-Jan-19 19:00N 40°40' W 074°02'0 0.0
2018-Jan-19 18:30N 40°40' W 074°02'0 0.0
2018-Jan-19 18:00N 40°40' W 074°02'0 0.0
2018-Jan-19 17:30N 40°40' W 074°02'0 0.1
2018-Jan-19 17:00N 40°40' W 074°02'0 0.0
2018-Jan-19 16:30N 40°40' W 074°02'0 0.0
2018-Jan-19 16:00N 40°40' W 074°02'0 0.1
2018-Jan-19 15:30N 40°40' W 074°02'0 0.0
2018-Jan-19 15:00N 40°40' W 074°02'0 0.0
2018-Jan-19 14:30N 40°40' W 074°02'0 0.0
2018-Jan-19 14:00N 40°40' W 074°02'0 0.0
2018-Jan-19 13:30N 40°40' W 074°02'0 0.0
2018-Jan-19 13:00N 40°40' W 074°02'0 0.0
2018-Jan-19 12:30N 40°40' W 074°02'0 0.0
2018-Jan-19 12:00N 40°40' W 074°02'0 0.1
2018-Jan-19 11:30N 40°40' W 074°02'0 0.1
2018-Jan-19 11:00N 40°40' W 074°02'0 0.1
2018-Jan-19 10:30N 40°40' W 074°02'0 0.1
2018-Jan-19 10:00N 40°40' W 074°02'0 0.0
2018-Jan-19 09:30N 40°40' W 074°02'0 0.0
2018-Jan-19 09:00N 40°40' W 074°02'0 0.0
2018-Jan-19 08:30N 40°40' W 074°02'0 0.0
2018-Jan-19 08:00N 40°40' W 074°02'0 0.0
2018-Jan-19 07:30N 40°40' W 074°02'0 0.0
2018-Jan-19 07:00N 40°40' W 074°02'0 0.0
2018-Jan-19 06:30N 40°40' W 074°02'0 0.0
2018-Jan-19 06:00N 40°40' W 074°02'0 0.0
2018-Jan-19 05:29N 40°40' W 074°02'0 0.1
2018-Jan-19 05:00N 40°40' W 074°02'0 0.0
2018-Jan-19 04:30N 40°40' W 074°02'0 0.0
2018-Jan-19 04:00N 40°40' W 074°02'0 0.0
2018-Jan-19 03:30N 40°40' W 074°02'0 0.0
2018-Jan-19 03:00N 40°40' W 074°02'0 0.0
2018-Jan-19 02:30N 40°40' W 074°02'0 0.0
2018-Jan-19 02:00N 40°40' W 074°02'0 0.0
2018-Jan-19 01:30N 40°40' W 074°02'0 0.0
2018-Jan-19 01:00N 40°40' W 074°02'0 0.0
2018-Jan-19 00:30N 40°40' W 074°02'0 0.0
2018-Jan-19 00:00N 40°40' W 074°02'0 0.0
2018-Jan-18 23:30N 40°40' W 074°02'0 0.1
2018-Jan-18 23:00N 40°40' W 074°02'0 0.0
2018-Jan-18 22:30N 40°40' W 074°02'0 0.0
2018-Jan-18 22:00N 40°40' W 074°02'0 0.0
2018-Jan-18 21:30N 40°40' W 074°02'0 0.0
2018-Jan-18 21:00N 40°40' W 074°02'0 0.0
2018-Jan-18 20:30N 40°40' W 074°02'0 0.0
2018-Jan-18 20:00N 40°40' W 074°02'0 0.0
2018-Jan-18 19:30N 40°40' W 074°02'0 0.0
2018-Jan-18 19:00N 40°40' W 074°02'0 0.0
2018-Jan-18 18:30N 40°40' W 074°02'0 0.0
2018-Jan-18 18:00N 40°40' W 074°02'0 0.0
2018-Jan-18 17:30N 40°40' W 074°02'0 0.0
2018-Jan-18 17:00N 40°40' W 074°02'0 0.0
2018-Jan-18 16:30N 40°40' W 074°02'0 0.1
2018-Jan-18 16:00N 40°40' W 074°02'0 0.1
2018-Jan-18 15:30N 40°40' W 074°02'0 0.0
2018-Jan-18 15:00N 40°40' W 074°02'0 0.1
2018-Jan-18 14:30N 40°40' W 074°02'0 0.5
2018-Jan-18 14:00N 40°40' W 074°02'1 2.7
2018-Jan-18 13:30N 40°41' W 074°02'4 7.7
2018-Jan-18 13:00N 40°45' W 074°01'8 7.9
2018-Jan-18 12:00N 40°52' W 073°56'  
Track history (hours):
 
Tides and Currents Weather Stations Pressure Air Temp Water Temp Dewpoint Dewpoint Depression Visibility Wind Speed Wind Dir Waves Ship Positions

Evening Mist

Owner: TUG EVENING MIST CORP, MELVILLE, NY. More information available from US FCC via Universal Licensing System and Coast Guard Vessel Documentation Center.

Last reported at 2018-Jan-24 09:00 UTC. Time now 2018-Jan-24 09:25 UTC.
Position N 40°39' W 074°05'.

Length 35 m; draft 5 m.

Type: Tow > 200 m length. MMSI: 367008230.

Date/timePositionNaut miles runAvg speedWind from/ knotsBaromVisibWave heightAir tempDewpointWater temp
2018-Jan-24 09:00N 40°39' W 074°05'2 3.2
2018-Jan-24 08:30N 40°39' W 074°03'0 0.1
2018-Jan-24 08:00N 40°39' W 074°02'0 0.0
2018-Jan-24 07:30N 40°39' W 074°02'0 0.0
2018-Jan-24 07:00N 40°39' W 074°02'0 0.0
2018-Jan-24 06:30N 40°39' W 074°02'0 0.0
2018-Jan-24 06:00N 40°39' W 074°02'0 0.0
2018-Jan-24 05:30N 40°39' W 074°02'0 0.0
2018-Jan-24 05:00N 40°39' W 074°02'0 0.0
2018-Jan-24 04:30N 40°39' W 074°02'0 0.0
2018-Jan-24 04:00N 40°39' W 074°02'0 0.0
2018-Jan-24 03:30N 40°39' W 074°02'0 0.0
2018-Jan-24 03:00N 40°39' W 074°02'0 0.0
2018-Jan-24 02:30N 40°39' W 074°02'0 0.0
2018-Jan-24 02:00N 40°39' W 074°02'0 0.0
2018-Jan-24 01:30N 40°39' W 074°03'0 0.0
2018-Jan-24 01:00N 40°39' W 074°02'0 0.0
2018-Jan-24 00:30N 40°39' W 074°03'0 0.1
2018-Jan-24 00:00N 40°39' W 074°03'0 0.0
2018-Jan-23 23:30N 40°39' W 074°03'0 0.0
2018-Jan-23 23:00N 40°39' W 074°03'0 0.0
2018-Jan-23 22:30N 40°39' W 074°03'0 0.1
2018-Jan-23 22:00N 40°39' W 074°03'0 0.2
2018-Jan-23 21:30N 40°39' W 074°03'0 0.1
2018-Jan-23 21:00N 40°39' W 074°03'0 0.0
2018-Jan-23 20:30N 40°39' W 074°03'0 0.2
2018-Jan-23 20:00N 40°39' W 074°03'0 0.1
2018-Jan-23 19:30N 40°39' W 074°03'0 0.0
2018-Jan-23 19:00N 40°39' W 074°03'0 0.0
2018-Jan-23 18:30N 40°39' W 074°03'0 0.0
2018-Jan-23 18:00N 40°39' W 074°03'0 0.0
2018-Jan-23 17:30N 40°39' W 074°03'0 0.0
2018-Jan-23 17:00N 40°39' W 074°03'0 0.0
2018-Jan-23 16:30N 40°39' W 074°03'0 0.0
2018-Jan-23 16:00N 40°39' W 074°03'0 0.0
2018-Jan-23 15:30N 40°39' W 074°03'0 0.0
2018-Jan-23 15:00N 40°39' W 074°03'0 0.0
2018-Jan-23 14:30N 40°39' W 074°03'0 0.0
2018-Jan-23 14:00N 40°39' W 074°03'0 0.1
2018-Jan-23 13:30N 40°39' W 074°03'1 2.4
2018-Jan-23 12:59N 40°39' W 074°04'2 4.9
2018-Jan-23 12:30N 40°38' W 074°07'0 0.0
2018-Jan-23 11:59N 40°38' W 074°07'0 0.0
2018-Jan-23 11:30N 40°39' W 074°07'0 0.0
2018-Jan-23 11:00N 40°38' W 074°07'0 0.0
2018-Jan-23 10:30N 40°38' W 074°07'1 1.3
2018-Jan-23 10:00N 40°39' W 074°07'0 0.1
2018-Jan-23 09:30N 40°39' W 074°07'1 1.1
2018-Jan-23 09:00N 40°38' W 074°07'0 0.0
2018-Jan-23 08:30N 40°39' W 074°07'0 0.0
2018-Jan-23 08:00N 40°39' W 074°07'0 0.0
2018-Jan-23 07:30N 40°39' W 074°07'0 0.0
2018-Jan-23 07:00N 40°39' W 074°07'0 0.0
2018-Jan-23 06:30N 40°39' W 074°07'0 0.0
2018-Jan-23 06:00N 40°38' W 074°07'0 0.0
2018-Jan-23 05:19N 40°39' W 074°07'0 0.0
2018-Jan-23 05:00N 40°39' W 074°07'0 0.0
2018-Jan-23 04:29N 40°39' W 074°07'0 0.0
2018-Jan-23 03:59N 40°38' W 074°07'0 0.0
2018-Jan-23 03:28N 40°39' W 074°07'0 0.0
2018-Jan-23 02:56N 40°39' W 074°07'1 2.9
2018-Jan-23 02:30N 40°39' W 074°09'3 6.7
2018-Jan-23 02:00N 40°36' W 074°12'0 0.0
2018-Jan-23 01:30N 40°36' W 074°12'0 0.6
2018-Jan-23 01:00N 40°37' W 074°12'1 1.9
2018-Jan-23 00:30N 40°38' W 074°12'0 0.3
2018-Jan-23 00:00N 40°38' W 074°12'4 7.5
2018-Jan-22 23:28N 40°39' W 074°07'0 0.9
2018-Jan-22 23:00N 40°39' W 074°07'0 0.1
2018-Jan-22 22:30N 40°39' W 074°07'0 0.3
2018-Jan-22 22:00N 40°39' W 074°07'1 1.0
2018-Jan-22 21:28N 40°38' W 074°07'0 0.0
2018-Jan-22 21:00N 40°38' W 074°07'0 0.0
2018-Jan-22 20:27N 40°38' W 074°07'0 0.0
2018-Jan-22 19:52N 40°38' W 074°07'2 5.8
2018-Jan-22 19:30N 40°39' W 074°10'3 5.5
2018-Jan-22 18:56N 40°36' W 074°12'0 0.0
2018-Jan-22 18:29N 40°36' W 074°12'0 0.0
2018-Jan-22 18:00N 40°36' W 074°12'0 0.9
2018-Jan-22 17:30N 40°36' W 074°12'1 1.0
2018-Jan-22 16:59N 40°36' W 074°12'1 1.1
2018-Jan-22 15:56N 40°35' W 074°13'1 1.4
2018-Jan-22 15:27N 40°36' W 074°12'0 0.0
2018-Jan-22 14:56N 40°36' W 074°12'1 2.2
2018-Jan-22 14:30N 40°37' W 074°12'3 6.4
2018-Jan-22 14:00N 40°39' W 074°09'5 9.7
2018-Jan-22 13:30N 40°39' W 074°03'0 0.1
2018-Jan-22 13:00N 40°39' W 074°03'0 0.0
2018-Jan-22 12:30N 40°39' W 074°03'1 2.5
2018-Jan-22 12:00N 40°40' W 074°02'2 3.6
2018-Jan-22 11:30N 40°41' W 074°00'2 4.6
2018-Jan-22 11:00N 40°40' W 074°02'1 1.5
2018-Jan-22 10:30N 40°39' W 074°03'2 4.3
2018-Jan-22 10:00N 40°39' W 074°05'0 0.1
2018-Jan-22 09:30N 40°39' W 074°05'1 1.9
2018-Jan-22 09:00N 40°39' W 074°07'0 0.1
2018-Jan-22 08:30N 40°39' W 074°07'0 0.0
2018-Jan-22 08:00N 40°39' W 074°07'0 0.0
2018-Jan-22 07:30N 40°39' W 074°07'0 0.0
2018-Jan-22 07:00N 40°39' W 074°07'0 0.0
2018-Jan-22 06:30N 40°39' W 074°07'0 0.0
2018-Jan-22 06:00N 40°39' W 074°07'0 0.0
2018-Jan-22 05:29N 40°39' W 074°07'0 0.5
2018-Jan-22 05:00N 40°39' W 074°07'4 8.2
2018-Jan-22 04:30N 40°37' W 074°12'4 6.4
2018-Jan-22 03:53N 40°34' W 074°13'1 2.4
2018-Jan-22 03:30N 40°33' W 074°14'0 0.1
2018-Jan-22 03:00N 40°33' W 074°14'3 5.1
2018-Jan-22 02:22N 40°36' W 074°12'3 6.7
2018-Jan-22 01:59N 40°39' W 074°11'3 6.4
2018-Jan-22 01:28N 40°39' W 074°07'0 0.0
2018-Jan-22 01:00N 40°39' W 074°07'0 0.0
2018-Jan-22 00:30N 40°39' W 074°07'0 0.0
2018-Jan-22 00:00N 40°39' W 074°07'0 0.0
2018-Jan-21 23:30N 40°39' W 074°07'0 0.0
2018-Jan-21 23:00N 40°39' W 074°07'0 0.0
2018-Jan-21 22:30N 40°39' W 074°07'0 0.0
2018-Jan-21 22:00N 40°39' W 074°07'0 0.0
2018-Jan-21 21:30N 40°39' W 074°07'0 0.0
2018-Jan-21 20:59N 40°39' W 074°07'0 0.0
2018-Jan-21 20:30N 40°39' W 074°07'0 0.0
2018-Jan-21 19:59N 40°39' W 074°07'0 0.0
2018-Jan-21 19:30N 40°39' W 074°07'0 0.0
2018-Jan-21 18:59N 40°39' W 074°07'0 0.0
2018-Jan-21 18:30N 40°39' W 074°07'0 0.4
2018-Jan-21 18:00N 40°39' W 074°07'0 0.7
2018-Jan-21 17:30N 40°39' W 074°07'0 0.2
2018-Jan-21 17:00N 40°39' W 074°07'0 0.0
2018-Jan-21 16:30N 40°39' W 074°07'0 0.0
2018-Jan-21 16:00N 40°39' W 074°07'1 2.0
2018-Jan-21 15:30N 40°39' W 074°05'0 0.0
2018-Jan-21 15:00N 40°39' W 074°05'1 1.9
2018-Jan-21 14:30N 40°39' W 074°04'1 3.0
2018-Jan-21 14:00N 40°40' W 074°02'0 0.1
2018-Jan-21 13:30N 40°40' W 074°02'0 0.2
2018-Jan-21 13:00N 40°40' W 074°02'0 0.1
2018-Jan-21 12:29N 40°40' W 074°02'0 0.0
2018-Jan-21 12:00N 40°40' W 074°02'0 0.0
2018-Jan-21 11:30N 40°40' W 074°02'0 0.0
2018-Jan-21 10:59N 40°40' W 074°02'0 0.0
2018-Jan-21 10:30N 40°40' W 074°02'0 0.1
2018-Jan-21 10:00N 40°40' W 074°02'1 2.3
2018-Jan-21 09:30N 40°39' W 074°04'3 5.2
2018-Jan-21 09:00N 40°39' W 074°07'0 0.0
2018-Jan-21 08:29N 40°39' W 074°07'0 0.0
2018-Jan-21 08:00N 40°39' W 074°07'0 0.7
2018-Jan-21 07:30N 40°39' W 074°07'0 0.0
2018-Jan-21 07:00N 40°39' W 074°07'0 0.0
2018-Jan-21 06:30N 40°39' W 074°07'0 0.0
2018-Jan-21 06:00N 40°39' W 074°07'0 0.0
2018-Jan-21 05:30N 40°39' W 074°07'0 0.0
2018-Jan-21 05:00N 40°39' W 074°07'0 0.0
2018-Jan-21 04:30N 40°39' W 074°07'2 3.9
2018-Jan-21 04:00N 40°39' W 074°10'4 7.4
2018-Jan-21 03:29N 40°36' W 074°12'0 0.5
2018-Jan-21 03:00N 40°36' W 074°12'0 0.0
2018-Jan-21 02:28N 40°36' W 074°12'0 0.0
2018-Jan-21 02:00N 40°36' W 074°12'0 0.0
2018-Jan-21 01:30N 40°36' W 074°12'0 0.0
2018-Jan-21 00:58N 40°36' W 074°12'2 4.0
2018-Jan-21 00:30N 40°38' W 074°12'0 0.1
2018-Jan-21 00:00N 40°38' W 074°12'0 0.2
2018-Jan-20 23:30N 40°38' W 074°12'0 0.4
2018-Jan-20 23:00N 40°38' W 074°12'0 0.0
2018-Jan-20 22:25N 40°38' W 074°12'0 0.5
2018-Jan-20 22:00N 40°38' W 074°12'4 8.1
2018-Jan-20 21:28N 40°39' W 074°06'1 1.2
2018-Jan-20 21:00N 40°39' W 074°07'0 0.0
2018-Jan-20 20:28N 40°39' W 074°07'0 0.0
2018-Jan-20 19:58N 40°39' W 074°07'0 0.0
2018-Jan-20 19:30N 40°39' W 074°07'0 0.0
2018-Jan-20 19:00N 40°39' W 074°07'0 0.2
2018-Jan-20 18:30N 40°39' W 074°07'0 0.2
2018-Jan-20 17:59N 40°39' W 074°07'0 0.0
2018-Jan-20 17:29N 40°39' W 074°07'0 0.0
2018-Jan-20 17:00N 40°39' W 074°07'0 0.0
2018-Jan-20 16:29N 40°39' W 074°07'0 0.0
2018-Jan-20 16:00N 40°39' W 074°07'0 0.7
2018-Jan-20 15:30N 40°39' W 074°07'0 0.0
2018-Jan-20 15:00N 40°39' W 074°07'0 0.0
2018-Jan-20 14:30N 40°39' W 074°07'1 1.9
2018-Jan-20 14:00N 40°39' W 074°06'3 5.5
2018-Jan-20 13:30N 40°40' W 074°02'0 0.1
2018-Jan-20 13:00N 40°40' W 074°02'0 0.0
2018-Jan-20 12:30N 40°40' W 074°02'0 0.0
2018-Jan-20 12:00N 40°40' W 074°02'0 0.1
2018-Jan-20 11:30N 40°40' W 074°02'0 0.1
2018-Jan-20 11:00N 40°40' W 074°02'0 0.0
2018-Jan-20 10:30N 40°40' W 074°02'0 0.0
2018-Jan-20 10:00N 40°40' W 074°02'0 0.0
2018-Jan-20 09:30N 40°40' W 074°02'0 0.0
2018-Jan-20 09:00N 40°40' W 074°02'0 0.0
2018-Jan-20 08:30N 40°40' W 074°02'0 0.0
2018-Jan-20 08:00N 40°40' W 074°02'0 0.0
2018-Jan-20 07:30N 40°40' W 074°02'0 0.0
2018-Jan-20 07:00N 40°40' W 074°02'0 0.0
2018-Jan-20 06:30N 40°40' W 074°02'0 0.2
2018-Jan-20 06:00N 40°40' W 074°02'0 0.1
2018-Jan-20 05:30N 40°40' W 074°02'0 0.0
2018-Jan-20 05:00N 40°40' W 074°02'0 0.0
2018-Jan-20 04:30N 40°40' W 074°02'0 0.0
2018-Jan-20 04:00N 40°40' W 074°02'0 0.0
2018-Jan-20 03:30N 40°40' W 074°02'0 0.0
2018-Jan-20 03:00N 40°40' W 074°02'0 0.0
2018-Jan-20 02:30N 40°40' W 074°02'0 0.0
2018-Jan-20 02:00N 40°40' W 074°02'0 0.0
2018-Jan-20 01:30N 40°40' W 074°02'0 0.0
2018-Jan-20 01:00N 40°40' W 074°02'0 0.0
2018-Jan-20 00:30N 40°40' W 074°02'0 0.1
2018-Jan-20 00:00N 40°40' W 074°02'0 0.2
2018-Jan-19 23:30N 40°40' W 074°02'0 0.1
2018-Jan-19 23:00N 40°40' W 074°02'0 0.0
2018-Jan-19 22:30N 40°40' W 074°02'0 0.0
2018-Jan-19 22:00N 40°40' W 074°02'0 0.0
2018-Jan-19 21:30N 40°40' W 074°02'0 0.0
2018-Jan-19 21:00N 40°40' W 074°02'0 0.0
2018-Jan-19 20:30N 40°40' W 074°02'0 0.0
2018-Jan-19 20:00N 40°40' W 074°02'0 0.0
2018-Jan-19 19:30N 40°40' W 074°02'0 0.0
2018-Jan-19 19:00N 40°40' W 074°02'0 0.0
2018-Jan-19 18:30N 40°40' W 074°02'0 0.0
2018-Jan-19 18:00N 40°40' W 074°02'0 0.0
2018-Jan-19 17:30N 40°40' W 074°02'0 0.1
2018-Jan-19 17:00N 40°40' W 074°02'0 0.0
2018-Jan-19 16:30N 40°40' W 074°02'0 0.0
2018-Jan-19 16:00N 40°40' W 074°02'0 0.1
2018-Jan-19 15:30N 40°40' W 074°02'0 0.0
2018-Jan-19 15:00N 40°40' W 074°02'0 0.0
2018-Jan-19 14:30N 40°40' W 074°02'0 0.0
2018-Jan-19 14:00N 40°40' W 074°02'0 0.0
2018-Jan-19 13:30N 40°40' W 074°02'0 0.0
2018-Jan-19 13:00N 40°40' W 074°02'0 0.0
2018-Jan-19 12:30N 40°40' W 074°02'0 0.0
2018-Jan-19 12:00N 40°40' W 074°02'0 0.1
2018-Jan-19 11:30N 40°40' W 074°02'0 0.1
2018-Jan-19 11:00N 40°40' W 074°02'0 0.1
2018-Jan-19 10:30N 40°40' W 074°02'0 0.1
2018-Jan-19 10:00N 40°40' W 074°02'0 0.0
2018-Jan-19 09:30N 40°40' W 074°02'0 0.0
2018-Jan-19 09:00N 40°40' W 074°02'0 0.0
2018-Jan-19 08:30N 40°40' W 074°02'0 0.0
2018-Jan-19 08:00N 40°40' W 074°02'0 0.0
2018-Jan-19 07:30N 40°40' W 074°02'0 0.0
2018-Jan-19 07:00N 40°40' W 074°02'0 0.0
2018-Jan-19 06:30N 40°40' W 074°02'0 0.0
2018-Jan-19 06:00N 40°40' W 074°02'0 0.0
2018-Jan-19 05:29N 40°40' W 074°02'0 0.1
2018-Jan-19 05:00N 40°40' W 074°02'0 0.0
2018-Jan-19 04:30N 40°40' W 074°02'0 0.0
2018-Jan-19 04:00N 40°40' W 074°02'0 0.0
2018-Jan-19 03:30N 40°40' W 074°02'0 0.0
2018-Jan-19 03:00N 40°40' W 074°02'0 0.0
2018-Jan-19 02:30N 40°40' W 074°02'0 0.0
2018-Jan-19 02:00N 40°40' W 074°02'0 0.0
2018-Jan-19 01:30N 40°40' W 074°02'0 0.0
2018-Jan-19 01:00N 40°40' W 074°02'0 0.0
2018-Jan-19 00:30N 40°40' W 074°02'0 0.0
2018-Jan-19 00:00N 40°40' W 074°02'0 0.0
2018-Jan-18 23:30N 40°40' W 074°02'0 0.1
2018-Jan-18 23:00N 40°40' W 074°02'0 0.0
2018-Jan-18 22:30N 40°40' W 074°02'0 0.0
2018-Jan-18 22:00N 40°40' W 074°02'0 0.0
2018-Jan-18 21:30N 40°40' W 074°02'0 0.0
2018-Jan-18 21:00N 40°40' W 074°02'0 0.0
2018-Jan-18 20:30N 40°40' W 074°02'0 0.0
2018-Jan-18 20:00N 40°40' W 074°02'0 0.0
2018-Jan-18 19:30N 40°40' W 074°02'0 0.0
2018-Jan-18 19:00N 40°40' W 074°02'0 0.0
2018-Jan-18 18:30N 40°40' W 074°02'0 0.0
2018-Jan-18 18:00N 40°40' W 074°02'0 0.0
2018-Jan-18 17:30N 40°40' W 074°02'0 0.0
2018-Jan-18 17:00N 40°40' W 074°02'0 0.0
2018-Jan-18 16:30N 40°40' W 074°02'0 0.1
2018-Jan-18 16:00N 40°40' W 074°02'0 0.1
2018-Jan-18 15:30N 40°40' W 074°02'0 0.0
2018-Jan-18 15:00N 40°40' W 074°02'0 0.1
2018-Jan-18 14:30N 40°40' W 074°02'0 0.5
2018-Jan-18 14:00N 40°40' W 074°02'1 2.7
2018-Jan-18 13:30N 40°41' W 074°02'4 7.7
2018-Jan-18 13:00N 40°45' W 074°01'8 7.9
2018-Jan-18 12:00N 40°52' W 073°56'  

Dump ship's entire track history